Time,TemperatureF,DewpointF,PressureIn,WindDirection,WindDirectionDegrees,WindSpeedMPH,WindSpeedGustMPH,Humidity,HourlyPrecipIn,Conditions,Clouds,dailyrainin,SoftwareType,DateUTC
2013-09-03 00:14:00,64.0,62.0,29.81,SSE,159,0.0,0.0,94,0.00,,,0.04,,2013-09-03 04:14:00,
2013-09-03 00:25:00,64.0,63.0,29.81,WSW,248,0.0,2.0,95,0.00,,,0.04,,2013-09-03 04:25:00,
2013-09-03 00:44:00,65.0,63.0,29.81,WSW,239,2.0,4.0,94,0.00,,,0.04,,2013-09-03 04:44:00,
2013-09-03 00:53:00,65.0,63.0,29.80,NNE,30,0.0,3.0,92,0.00,,,0.04,,2013-09-03 04:53:00,
2013-09-03 01:12:00,65.0,63.0,29.80,West,269,2.0,4.0,93,0.00,,,0.04,,2013-09-03 05:12:00,
2013-09-03 01:23:00,65.0,63.0,29.80,WNW,284,2.0,4.0,92,0.00,,,0.04,,2013-09-03 05:23:00,
2013-09-03 01:43:00,65.0,63.0,29.80,NNW,335,0.0,0.0,93,0.00,,,0.04,,2013-09-03 05:43:00,
2013-09-03 01:52:00,64.0,62.0,29.80,SSW,211,0.0,0.0,93,0.00,,,0.04,,2013-09-03 05:52:00,
2013-09-03 02:12:00,64.0,62.0,29.80,SSW,211,0.0,0.0,93,0.00,,,0.04,,2013-09-03 06:12:00,
2013-09-03 02:22:00,64.0,62.0,29.80,WNW,289,1.0,2.0,94,0.00,,,0.04,,2013-09-03 06:22:00,
2013-09-03 02:52:00,64.0,62.0,29.81,WNW,288,0.0,0.0,94,0.00,,,0.04,,2013-09-03 06:52:00,
2013-09-03 03:12:00,64.0,62.0,29.81,WNW,290,0.0,2.0,94,0.00,,,0.04,,2013-09-03 07:12:00,
2013-09-03 03:22:00,64.0,62.0,29.82,WNW,295,0.0,2.0,94,0.00,,,0.04,,2013-09-03 07:22:00,
2013-09-03 03:53:00,63.0,62.0,29.82,NNW,344,0.0,0.0,95,0.00,,,0.04,,2013-09-03 07:53:00,
2013-09-03 04:11:00,63.0,61.0,29.82,WNW,295,2.0,5.0,94,0.00,,,0.04,,2013-09-03 08:11:00,
2013-09-03 04:22:00,63.0,61.0,29.83,West,281,0.0,2.0,94,0.00,,,0.04,,2013-09-03 08:22:00,
2013-09-03 04:52:00,62.0,60.0,29.83,West,281,0.0,0.0,94,0.00,,,0.04,,2013-09-03 08:52:00,
2013-09-03 05:11:00,62.0,61.0,29.83,WNW,294,0.0,0.0,95,0.00,,,0.04,,2013-09-03 09:11:00,
2013-09-03 05:22:00,62.0,60.0,29.83,NNE,16,0.0,5.0,94,0.00,,,0.04,,2013-09-03 09:22:00,
2013-09-03 05:43:00,61.0,59.0,29.83,NW,326,2.0,4.0,94,0.00,,,0.04,,2013-09-03 09:43:00,
2013-09-03 05:53:00,61.0,59.0,29.84,WNW,297,2.0,3.0,93,0.00,,,0.04,,2013-09-03 09:53:00,
2013-09-03 06:13:00,60.0,57.0,29.84,WNW,294,1.0,3.0,91,0.00,,,0.04,,2013-09-03 10:13:00,
2013-09-03 06:23:00,60.0,57.0,29.85,WNW,291,2.0,3.0,91,0.00,,,0.04,,2013-09-03 10:23:00,
2013-09-03 06:42:00,60.0,57.0,29.85,West,262,0.0,0.0,91,0.00,,,0.04,,2013-09-03 10:42:00,
2013-09-03 06:53:00,59.0,57.0,29.85,West,262,0.0,0.0,92,0.00,,,0.04,,2013-09-03 10:53:00,
2013-09-03 07:12:00,58.0,56.0,29.85,SW,231,0.0,0.0,94,0.00,,,0.04,,2013-09-03 11:12:00,
2013-09-03 07:23:00,58.0,57.0,29.86,SW,223,0.0,0.0,95,0.00,,,0.04,,2013-09-03 11:23:00,
2013-09-03 07:52:00,58.0,57.0,29.87,SW,224,0.0,0.0,95,0.00,,,0.04,,2013-09-03 11:52:00,
2013-09-03 08:12:00,59.0,58.0,29.87,ENE,65,0.0,0.0,95,0.00,,,0.04,,2013-09-03 12:12:00,
2013-09-03 08:22:00,59.0,58.0,29.88,East,82,0.0,0.0,95,0.00,,,0.04,,2013-09-03 12:22:00,
2013-09-03 08:52:00,62.0,60.0,29.88,NE,47,0.0,0.0,93,0.00,,,0.04,,2013-09-03 12:52:00,
2013-09-03 09:11:00,62.0,58.0,29.88,WSW,243,3.0,6.0,88,0.00,,,0.04,,2013-09-03 13:11:00,
2013-09-03 09:22:00,63.0,59.0,29.88,West,263,1.0,4.0,87,0.00,,,0.04,,2013-09-03 13:22:00,
2013-09-03 09:42:00,63.0,58.0,29.88,West,274,4.0,8.0,85,0.00,,,0.04,,2013-09-03 13:42:00,
2013-09-03 09:52:00,64.0,59.0,29.88,West,273,3.0,8.0,84,0.00,,,0.04,,2013-09-03 13:52:00,
2013-09-03 10:11:00,64.0,57.0,29.88,SSW,198,5.0,11.0,79,0.00,,,0.04,,2013-09-03 14:11:00,
2013-09-03 10:21:00,64.0,57.0,29.89,WSW,245,8.0,14.0,77,0.00,,,0.04,,2013-09-03 14:21:00,
2013-09-03 10:52:00,65.0,56.0,29.89,NNW,342,6.0,17.0,74,0.00,,,0.04,,2013-09-03 14:52:00,
2013-09-03 11:22:00,65.0,53.0,29.89,SW,226,9.0,15.0,65,0.00,,,0.04,,2013-09-03 15:22:00,
2013-09-03 11:43:00,67.0,54.0,29.89,West,276,8.0,12.0,64,0.00,,,0.04,,2013-09-03 15:43:00,
2013-09-03 11:54:00,66.0,55.0,29.90,West,263,8.0,13.0,68,0.00,,,0.04,,2013-09-03 15:54:00,
2013-09-03 12:14:00,66.0,55.0,29.89,WSW,252,8.0,11.0,68,0.00,,,0.04,,2013-09-03 16:14:00,
2013-09-03 12:24:00,66.0,56.0,29.89,WSW,257,5.0,12.0,69,0.00,,,0.04,,2013-09-03 16:24:00,
2013-09-03 12:43:00,66.0,56.0,29.89,SW,228,5.0,13.0,70,0.00,,,0.04,,2013-09-03 16:43:00,
2013-09-03 12:54:00,66.0,56.0,29.89,WNW,284,6.0,15.0,69,0.00,,,0.04,,2013-09-03 16:54:00,
2013-09-03 13:13:00,67.0,56.0,29.89,WSW,240,4.0,13.0,67,0.00,,,0.04,,2013-09-03 17:13:00,
2013-09-03 13:23:00,67.0,56.0,29.89,WSW,238,5.0,10.0,68,0.00,,,0.04,,2013-09-03 17:23:00,
2013-09-03 13:52:00,66.0,56.0,29.89,West,271,5.0,12.0,69,0.00,,,0.04,,2013-09-03 17:52:00,
2013-09-03 14:12:00,67.0,55.0,29.89,SW,217,6.0,13.0,66,0.00,,,0.04,,2013-09-03 18:12:00,
2013-09-03 14:22:00,66.0,56.0,29.90,West,273,5.0,13.0,69,0.00,,,0.04,,2013-09-03 18:22:00,
2013-09-03 14:43:00,66.0,56.0,29.90,West,271,5.0,12.0,71,0.00,,,0.04,,2013-09-03 18:43:00,
2013-09-03 14:52:00,66.0,56.0,29.89,West,278,7.0,11.0,71,0.00,,,0.04,,2013-09-03 18:52:00,
2013-09-03 15:11:00,67.0,57.0,29.89,SW,222,5.0,12.0,71,0.00,,,0.04,,2013-09-03 19:11:00,
2013-09-03 15:22:00,67.0,57.0,29.89,West,277,6.0,15.0,71,0.00,,,0.04,,2013-09-03 19:22:00,
2013-09-03 15:42:00,67.0,57.0,29.89,WSW,255,5.0,13.0,71,0.00,,,0.04,,2013-09-03 19:42:00,
2013-09-03 15:52:00,67.0,57.0,29.88,SW,226,5.0,10.0,71,0.00,,,0.04,,2013-09-03 19:52:00,
2013-09-03 16:11:00,67.0,57.0,29.89,West,269,5.0,15.0,71,0.00,,,0.04,,2013-09-03 20:11:00,
2013-09-03 16:22:00,66.0,57.0,29.89,WNW,297,6.0,15.0,72,0.00,,,0.04,,2013-09-03 20:22:00,
2013-09-03 16:42:00,67.0,58.0,29.89,SSW,198,1.0,8.0,74,0.00,,,0.04,,2013-09-03 20:42:00,
2013-09-03 16:53:00,67.0,58.0,29.89,West,278,1.0,5.0,72,0.00,,,0.04,,2013-09-03 20:53:00,
2013-09-03 17:12:00,67.0,58.0,29.89,WSW,243,0.0,5.0,73,0.00,,,0.04,,2013-09-03 21:12:00,
2013-09-03 17:22:00,67.0,58.0,29.89,West,269,3.0,8.0,72,0.00,,,0.04,,2013-09-03 21:22:00,
2013-09-03 17:44:00,66.0,57.0,29.90,West,281,5.0,11.0,73,0.00,,,0.04,,2013-09-03 21:44:00,
2013-09-03 17:54:00,66.0,57.0,29.90,WNW,285,4.0,10.0,73,0.00,,,0.04,,2013-09-03 21:54:00,
2013-09-03 18:13:00,67.0,58.0,29.90,WNW,296,5.0,11.0,72,0.00,,,0.04,,2013-09-03 22:13:00,
2013-09-03 18:24:00,66.0,57.0,29.91,WNW,288,7.0,12.0,73,0.00,,,0.00,,2013-09-03 22:24:00,
2013-09-03 18:53:00,65.0,56.0,29.91,WSW,255,6.0,11.0,73,0.00,,,0.00,,2013-09-03 22:53:00,
2013-09-03 19:12:00,65.0,57.0,29.91,WNW,284,5.0,17.0,75,0.00,,,0.00,,2013-09-03 23:12:00,
2013-09-03 19:23:00,64.0,56.0,29.91,West,278,5.0,9.0,76,0.00,,,0.00,,2013-09-03 23:23:00,
2013-09-03 19:54:00,64.0,57.0,29.93,WNW,294,7.0,12.0,78,0.00,,,0.00,,2013-09-03 23:54:00,
2013-09-03 20:12:00,63.0,57.0,29.93,West,259,5.0,10.0,80,0.00,,,0.00,,2013-09-04 00:12:00,
2013-09-03 20:22:00,63.0,57.0,29.94,West,276,7.0,14.0,81,0.00,,,0.00,,2013-09-04 00:22:00,
2013-09-03 20:42:00,62.0,57.0,29.94,West,267,3.0,8.0,83,0.00,,,0.00,,2013-09-04 00:42:00,
2013-09-03 20:52:00,62.0,57.0,29.95,WNW,285,1.0,7.0,83,0.00,,,0.00,,2013-09-04 00:52:00,
2013-09-03 21:12:00,62.0,57.0,29.96,WSW,246,2.0,6.0,84,0.00,,,0.00,,2013-09-04 01:12:00,
2013-09-03 21:22:00,61.0,56.0,29.97,West,266,1.0,5.0,85,0.00,,,0.00,,2013-09-04 01:22:00,
2013-09-03 21:42:00,61.0,57.0,29.97,SW,231,4.0,8.0,86,0.00,,,0.00,,2013-09-04 01:42:00,
2013-09-03 21:53:00,61.0,57.0,29.97,WSW,256,4.0,6.0,87,0.00,,,0.00,,2013-09-04 01:53:00,
2013-09-03 22:11:00,61.0,57.0,29.98,SW,223,5.0,7.0,87,0.00,,,0.00,,2013-09-04 02:11:00,
2013-09-03 22:22:00,61.0,57.0,29.98,West,277,2.0,5.0,87,0.00,,,0.00,,2013-09-04 02:22:00,
2013-09-03 22:43:00,60.0,56.0,29.98,SW,228,2.0,6.0,88,0.00,,,0.00,,2013-09-04 02:43:00,
2013-09-03 22:52:00,60.0,56.0,29.98,West,266,3.0,5.0,88,0.00,,,0.00,,2013-09-04 02:52:00,
2013-09-03 23:11:00,60.0,56.0,29.98,WSW,245,2.0,5.0,88,0.00,,,0.00,,2013-09-04 03:11:00,
2013-09-03 23:22:00,60.0,57.0,29.98,WSW,255,5.0,7.0,89,0.00,,,0.00,,2013-09-04 03:22:00,
2013-09-03 23:44:00,60.0,57.0,29.98,WSW,250,1.0,8.0,89,0.00,,,0.00,,2013-09-04 03:44:00,
2013-09-03 23:54:00,60.0,57.0,29.98,WSW,248,1.0,6.0,89,0.00,,,0.00,,2013-09-04 03:54:00,